createdAt,value
2019-02-23T00:01:14.983Z,133.57
2019-02-23T00:03:44.480Z,136.60
2019-02-23T00:06:13.788Z,139.77
2019-02-23T00:08:43.128Z,133.82
2019-02-23T00:11:12.578Z,118.77
2019-02-23T00:13:41.967Z,124.62
2019-02-23T00:16:11.685Z,122.47
2019-02-23T00:18:41.090Z,129.87
2019-02-23T00:21:10.462Z,121.57
2019-02-23T00:23:39.818Z,137.40
2019-02-23T00:26:09.140Z,131.15
2019-02-23T00:28:38.455Z,148.05
2019-02-23T00:31:07.829Z,141.40
2019-02-23T00:33:37.199Z,143.47
2019-02-23T00:36:06.525Z,132.27
2019-02-23T00:38:35.995Z,139.97
2019-02-23T00:41:05.297Z,134.00
2019-02-23T00:43:34.593Z,141.92
2019-02-23T00:46:03.926Z,139.50
2019-02-23T00:48:33.253Z,147.30
2019-02-23T00:51:02.538Z,141.10
2019-02-23T00:53:32.102Z,149.47
2019-02-23T00:56:02.045Z,143.72
2019-02-23T00:58:31.348Z,147.57
2019-02-23T01:01:00.873Z,142.45
2019-02-23T01:03:30.269Z,131.25
2019-02-23T01:05:59.816Z,129.63
2019-02-23T01:08:29.282Z,137.00
2019-02-23T01:10:58.670Z,138.07
2019-02-23T01:13:27.941Z,122.80
2019-02-23T01:15:58.489Z,124.97
2019-02-23T01:18:27.981Z,138.22
2019-02-23T01:20:57.303Z,150.05
2019-02-23T01:23:26.766Z,132.18
2019-02-23T01:25:56.126Z,131.75
2019-02-23T01:28:25.544Z,124.62
2019-02-23T01:30:55.127Z,126.47
2019-02-23T01:33:24.515Z,114.35
2019-02-23T01:35:54.614Z,117.65
2019-02-23T01:38:23.988Z,124.92
2019-02-23T01:40:53.424Z,115.52
2019-02-23T01:43:22.768Z,132.70
2019-02-23T01:45:52.332Z,124.38
2019-02-23T01:48:21.701Z,132.67
2019-02-23T01:50:51.078Z,123.42
2019-02-23T01:53:20.413Z,116.05
2019-02-23T01:55:49.730Z,112.57
2019-02-23T01:58:19.193Z,112.30
2019-02-23T02:00:48.603Z,115.95
2019-02-23T02:03:18.016Z,104.67
2019-02-23T02:05:47.306Z,108.37
2019-02-23T02:08:16.847Z,130.55
2019-02-23T02:10:46.244Z,133.05
2019-02-23T02:13:15.703Z,155.35
2019-02-23T02:15:45.937Z,172.07
2019-02-23T02:18:15.346Z,180.12
2019-02-23T02:20:44.738Z,186.43
2019-02-23T02:23:14.391Z,177.97
2019-02-23T02:25:43.754Z,172.50
2019-02-23T02:28:13.082Z,187.85
2019-02-23T02:30:42.481Z,187.85
2019-02-23T02:33:11.915Z,165.62
2019-02-23T02:35:41.237Z,180.50
2019-02-23T02:38:10.566Z,181.93
2019-02-23T02:40:39.906Z,166.03
2019-02-23T02:43:09.198Z,169.05
2019-02-23T02:45:38.678Z,168.68
2019-02-23T02:48:08.078Z,168.47
2019-02-23T02:50:37.474Z,161.95
2019-02-23T02:53:06.916Z,168.30
2019-02-23T02:55:36.893Z,178.35
2019-02-23T02:58:06.184Z,161.22
2019-02-23T03:00:35.671Z,154.30
2019-02-23T03:03:04.959Z,156.28
2019-02-23T03:05:34.602Z,152.55
2019-02-23T03:08:04.054Z,141.92
2019-02-23T03:10:33.288Z,150.57
2019-02-23T03:13:02.619Z,159.57
2019-02-23T03:15:32.062Z,172.10
2019-02-23T03:18:01.474Z,170.87
2019-02-23T03:20:36.651Z,144.68
2019-02-23T03:23:02.006Z,159.82
2019-02-23T03:25:31.350Z,179.60
2019-02-23T03:28:00.900Z,176.15
2019-02-23T03:30:30.214Z,174.38
2019-02-23T03:32:59.651Z,148.53
2019-02-23T03:35:29.361Z,135.88
2019-02-23T03:37:58.777Z,180.48
2019-02-23T03:40:28.281Z,174.05
2019-02-23T03:42:57.664Z,129.32
2019-02-23T03:45:27.239Z,124.87
2019-02-23T03:47:56.573Z,143.13
2019-02-23T03:50:25.940Z,140.43
2019-02-23T03:52:55.292Z,151.20
2019-02-23T03:55:24.658Z,175.50
2019-02-23T03:57:54.886Z,179.38
2019-02-23T04:00:24.341Z,173.10
2019-02-23T04:02:53.645Z,162.85
2019-02-23T04:05:23.069Z,162.45
2019-02-23T04:07:52.490Z,136.85
2019-02-23T04:10:21.924Z,149.07
2019-02-23T04:12:51.515Z,183.40
2019-02-23T04:15:21.224Z,124.02
2019-02-23T04:17:50.507Z,137.55
2019-02-23T04:20:20.040Z,135.35
2019-02-23T04:22:49.400Z,159.78
2019-02-23T04:25:18.690Z,141.32
2019-02-23T04:27:48.245Z,133.57
2019-02-23T04:30:17.538Z,116.93
2019-02-23T04:32:46.910Z,108.40
2019-02-23T04:35:16.317Z,96.65
2019-02-23T04:37:45.823Z,93.03
2019-02-23T04:40:15.077Z,94.92
2019-02-23T04:42:44.662Z,122.25
2019-02-23T04:45:14.094Z,135.68
2019-02-23T04:47:43.413Z,117.40
2019-02-23T04:50:12.803Z,116.82
2019-02-23T04:52:42.191Z,120.33
2019-02-23T04:55:12.247Z,112.85
2019-02-23T04:57:41.586Z,133.70
2019-02-23T05:00:12.313Z,104.15
2019-02-23T05:02:41.671Z,128.65
2019-02-23T05:05:11.575Z,116.37
2019-02-23T05:07:41.242Z,126.05
2019-02-23T05:10:10.657Z,132.15
2019-02-23T05:12:40.039Z,127.38
2019-02-23T05:15:10.405Z,134.52
2019-02-23T05:17:39.869Z,118.50
2019-02-23T05:20:09.379Z,144.60
2019-02-23T05:22:38.797Z,116.40
2019-02-23T05:25:08.191Z,139.00
2019-02-23T05:27:37.778Z,130.15
2019-02-23T05:30:08.274Z,114.67
2019-02-23T05:32:37.637Z,120.28
2019-02-23T05:35:08.954Z,128.50
2019-02-23T05:37:38.281Z,107.00
2019-02-23T05:40:08.569Z,135.60
2019-02-23T05:42:38.288Z,125.75
2019-02-23T05:45:07.769Z,97.40
2019-02-23T05:47:37.172Z,128.97
2019-02-23T05:50:07.314Z,101.30
2019-02-23T05:52:36.610Z,111.25
2019-02-23T05:55:06.129Z,122.78
2019-02-23T05:57:35.601Z,131.78
2019-02-23T06:00:05.441Z,130.72
2019-02-23T06:02:34.842Z,110.12
2019-02-23T06:05:04.275Z,101.47
2019-02-23T06:07:33.642Z,89.65
2019-02-23T06:10:03.315Z,91.80
2019-02-23T06:12:32.761Z,88.52
2019-02-23T06:15:02.267Z,96.82
2019-02-23T06:17:31.668Z,107.63
2019-02-23T06:20:01.119Z,93.07
2019-02-23T06:22:30.429Z,104.17
2019-02-23T06:24:59.805Z,106.43
2019-02-23T06:27:29.277Z,133.52
2019-02-23T06:29:58.595Z,127.85
2019-02-23T06:32:28.008Z,126.70
2019-02-23T06:34:57.543Z,103.20
2019-02-23T06:37:26.934Z,96.67
2019-02-23T06:39:56.291Z,100.33
2019-02-23T06:42:25.828Z,116.05
2019-02-23T06:44:55.193Z,115.28
2019-02-23T06:47:24.613Z,125.58
2019-02-23T06:49:54.146Z,101.45
2019-02-23T06:52:23.454Z,120.22
2019-02-23T06:54:52.920Z,118.53
2019-02-23T06:57:22.351Z,110.97
2019-02-23T06:59:51.802Z,117.67
2019-02-23T07:02:21.118Z,110.80
2019-02-23T07:04:50.522Z,117.97
2019-02-23T07:07:19.900Z,108.20
2019-02-23T07:09:49.282Z,119.42
2019-02-23T07:12:19.014Z,128.72
2019-02-23T07:14:48.317Z,123.05
2019-02-23T07:17:17.625Z,128.95
2019-02-23T07:19:47.002Z,124.53
2019-02-23T07:22:16.319Z,118.37
2019-02-23T07:24:45.616Z,122.78
2019-02-23T07:27:14.986Z,129.80
2019-02-23T07:29:44.430Z,128.45
2019-02-23T07:32:13.844Z,128.07
2019-02-23T07:34:43.722Z,117.03
2019-02-23T07:37:13.158Z,116.45
2019-02-23T07:39:42.518Z,111.42
2019-02-23T07:42:11.839Z,112.12
2019-02-23T07:44:41.141Z,115.72
2019-02-23T07:47:12.316Z,111.68
2019-02-23T07:49:41.721Z,101.05
2019-02-23T07:52:11.036Z,105.92
2019-02-23T07:54:40.439Z,114.97
2019-02-23T07:57:09.890Z,102.62
2019-02-23T07:59:39.311Z,99.70
2019-02-23T08:02:08.607Z,94.37
2019-02-23T08:04:38.177Z,97.02
2019-02-23T08:07:07.522Z,92.57
2019-02-23T08:09:36.835Z,84.95
2019-02-23T08:12:06.232Z,80.10
2019-02-23T08:14:35.925Z,74.30
2019-02-23T08:17:05.222Z,77.90
2019-02-23T08:19:34.636Z,80.32
2019-02-23T08:22:03.930Z,74.53
2019-02-23T08:24:33.309Z,75.65
2019-02-23T08:27:02.758Z,67.27
2019-02-23T08:29:32.139Z,69.67
2019-02-23T08:32:01.465Z,68.00
2019-02-23T08:34:30.809Z,66.20
2019-02-23T08:37:00.118Z,66.22
2019-02-23T08:39:29.468Z,67.30
2019-02-23T08:41:58.817Z,62.40
2019-02-23T08:44:28.113Z,65.35
2019-02-23T08:46:57.483Z,61.30
2019-02-23T08:49:27.201Z,60.73
2019-02-23T08:51:56.642Z,60.17
2019-02-23T08:54:26.760Z,61.50
2019-02-23T08:56:56.317Z,60.70
2019-02-23T08:59:25.603Z,62.17
2019-02-23T09:01:54.955Z,52.23
2019-02-23T09:04:24.288Z,51.92
2019-02-23T09:06:53.649Z,46.77
2019-02-23T09:09:22.949Z,47.67
2019-02-23T09:11:52.273Z,51.63
2019-02-23T09:14:21.667Z,47.38
2019-02-23T09:16:51.050Z,47.15
2019-02-23T09:19:20.845Z,47.95
2019-02-23T09:21:50.122Z,43.30
2019-02-23T09:24:19.605Z,46.48
2019-02-23T09:26:48.923Z,37.67
2019-02-23T09:29:18.227Z,37.98
2019-02-23T09:31:47.572Z,35.28
2019-02-23T09:34:17.710Z,37.53
2019-02-23T09:36:47.166Z,31.85
2019-02-23T09:39:16.473Z,33.13
2019-02-23T09:41:45.869Z,32.20
2019-02-23T09:44:15.232Z,29.48
2019-02-23T09:46:44.627Z,25.75
2019-02-23T09:49:14.196Z,25.12
2019-02-23T09:51:43.495Z,25.60
2019-02-23T09:54:12.862Z,24.30
2019-02-23T09:56:42.373Z,23.80
2019-02-23T09:59:11.768Z,23.65
2019-02-23T10:01:41.145Z,25.43
2019-02-23T10:04:11.094Z,23.87
2019-02-23T10:06:40.486Z,22.77
2019-02-23T10:09:09.815Z,24.67
2019-02-23T10:11:39.218Z,22.87
2019-02-23T10:14:09.353Z,23.57
2019-02-23T10:16:38.669Z,24.45
2019-02-23T10:19:08.074Z,23.45
2019-02-23T10:21:37.447Z,27.75
2019-02-23T10:24:06.834Z,26.35
2019-02-23T10:26:36.417Z,23.67
2019-02-23T10:29:05.756Z,22.82
2019-02-23T10:31:35.125Z,23.40
2019-02-23T10:34:04.466Z,25.02
2019-02-23T10:36:33.793Z,23.52
2019-02-23T10:39:03.592Z,24.15
2019-02-23T10:41:33.010Z,25.62
2019-02-23T10:44:02.369Z,24.80
2019-02-23T10:46:31.773Z,24.65
2019-02-23T10:49:01.125Z,29.70
2019-02-23T10:51:30.461Z,24.98
2019-02-23T10:54:00.080Z,34.10
2019-02-23T10:56:29.693Z,23.75
2019-02-23T10:58:58.993Z,21.00
2019-02-23T11:01:28.383Z,24.15
2019-02-23T11:03:57.860Z,25.82
2019-02-23T11:06:27.227Z,22.27
2019-02-23T11:08:56.533Z,52.83
2019-02-23T11:11:25.888Z,28.57
2019-02-23T11:13:55.189Z,20.35
2019-02-23T11:16:24.488Z,22.52
2019-02-23T11:18:53.818Z,19.92
2019-02-23T11:21:23.201Z,19.30
2019-02-23T11:23:52.554Z,20.97
2019-02-23T11:26:21.946Z,21.42
2019-02-23T11:28:51.345Z,20.77
2019-02-23T11:31:20.694Z,18.23
2019-02-23T11:33:50.254Z,21.00
2019-02-23T11:36:19.646Z,19.55
2019-02-23T11:38:49.098Z,17.90
2019-02-23T11:41:18.426Z,18.82
2019-02-23T11:43:48.348Z,21.00
2019-02-23T11:46:17.663Z,19.90
2019-02-23T11:48:47.271Z,17.65
2019-02-23T11:51:16.570Z,18.35
2019-02-23T11:53:54.623Z,20.48
2019-02-23T11:56:16.957Z,19.48
2019-02-23T11:58:46.387Z,20.92
2019-02-23T12:01:15.757Z,19.90
2019-02-23T12:03:45.437Z,21.75
2019-02-23T12:06:14.816Z,23.18
2019-02-23T12:08:44.614Z,17.65
2019-02-23T12:11:13.973Z,18.98
2019-02-23T12:13:43.587Z,19.00
2019-02-23T12:16:12.921Z,16.97
2019-02-23T12:18:42.671Z,19.65
2019-02-23T12:21:12.039Z,18.62
2019-02-23T12:23:41.535Z,15.18
2019-02-23T12:26:11.239Z,15.45
2019-02-23T12:28:40.622Z,18.52
2019-02-23T12:31:10.161Z,18.27
2019-02-23T12:33:39.658Z,15.93
2019-02-23T12:36:09.124Z,14.93
2019-02-23T12:38:38.425Z,15.65
2019-02-23T12:41:07.845Z,14.07
2019-02-23T12:43:37.477Z,13.85
2019-02-23T12:46:06.801Z,17.23
2019-02-23T12:48:36.433Z,12.63
2019-02-23T12:51:05.794Z,13.58
2019-02-23T12:53:35.617Z,13.93
2019-02-23T12:56:04.991Z,13.98
2019-02-23T12:58:34.285Z,16.82
2019-02-23T13:01:03.597Z,16.30
2019-02-23T13:03:33.048Z,17.32
2019-02-23T13:06:02.507Z,16.30
2019-02-23T13:09:07.894Z,20.75
2019-02-23T13:11:37.186Z,12.45
2019-02-23T13:14:35.491Z,14.07
2019-02-23T13:17:17.670Z,11.70
2019-02-23T13:20:36.491Z,15.25
2019-02-23T13:23:38.310Z,10.90
2019-02-23T13:26:57.516Z,15.25
2019-02-23T13:30:06.565Z,18.27
2019-02-23T13:33:15.249Z,15.35
2019-02-23T13:36:17.301Z,15.15
2019-02-23T13:39:10.646Z,14.23
2019-02-23T13:42:07.328Z,16.90
2019-02-23T13:45:09.728Z,13.68
2019-02-23T13:48:02.077Z,14.35
2019-02-23T13:50:38.741Z,15.40
2019-02-23T13:53:31.425Z,15.30
2019-02-23T13:56:31.349Z,15.70
2019-02-23T13:59:53.931Z,16.55
2019-02-23T14:02:56.865Z,15.32
2019-02-23T14:05:37.703Z,15.10
2019-02-23T14:08:50.894Z,15.05
2019-02-23T14:11:58.910Z,14.98
2019-02-23T14:15:10.466Z,13.55
2019-02-23T14:18:02.364Z,12.78
2019-02-23T14:20:59.399Z,15.43
2019-02-23T14:24:05.391Z,18.05
2019-02-23T14:27:16.081Z,13.70
2019-02-23T14:30:53.815Z,16.27
2019-02-23T14:33:39.625Z,15.13
2019-02-23T14:36:23.861Z,22.82
2019-02-23T14:39:32.097Z,13.40
2019-02-23T14:42:43.199Z,16.48
2019-02-23T14:45:43.702Z,15.18
2019-02-23T14:48:51.827Z,17.55
2019-02-23T14:51:50.568Z,15.75
2019-02-23T14:54:40.792Z,23.62
2019-02-23T14:57:52.159Z,14.98
2019-02-23T15:01:18.457Z,15.48
2019-02-23T15:04:50.264Z,14.05
2019-02-23T15:07:48.269Z,15.43
2019-02-23T15:10:45.947Z,16.50
2019-02-23T15:14:23.368Z,15.65
2019-02-23T15:17:21.810Z,19.02
2019-02-23T15:20:23.572Z,27.98
2019-02-23T15:23:42.410Z,19.37
2019-02-23T15:26:41.477Z,18.40
2019-02-23T15:29:26.557Z,17.32
2019-02-23T15:32:44.137Z,16.67
2019-02-23T15:35:53.358Z,16.35
2019-02-23T15:38:40.464Z,15.35
2019-02-23T15:42:02.638Z,31.33
2019-02-23T15:45:04.738Z,18.12
2019-02-23T15:48:19.916Z,19.60
2019-02-23T15:50:49.322Z,18.25
2019-02-23T15:53:18.792Z,17.20
2019-02-23T15:55:48.154Z,18.15
2019-02-23T15:58:19.721Z,18.65
2019-02-23T16:00:49.033Z,17.65
2019-02-23T16:03:19.649Z,16.85
2019-02-23T16:05:49.260Z,16.80
2019-02-23T16:08:18.634Z,21.60
2019-02-23T16:10:48.050Z,19.48
2019-02-23T16:13:17.586Z,27.70
2019-02-23T16:15:46.897Z,21.57
2019-02-23T16:18:16.317Z,17.07
2019-02-23T16:20:45.716Z,21.62
2019-02-23T16:23:15.100Z,17.07
2019-02-23T16:25:44.420Z,17.20
2019-02-23T16:28:13.761Z,19.90
2019-02-23T16:30:43.051Z,21.93
2019-02-23T16:33:12.526Z,18.50
2019-02-23T16:35:42.111Z,19.05
2019-02-23T16:38:11.581Z,20.65
2019-02-23T16:40:40.962Z,18.12
2019-02-23T16:43:10.338Z,20.05
2019-02-23T16:45:39.890Z,20.48
2019-02-23T16:48:09.253Z,19.27
2019-02-23T16:50:38.607Z,20.10
2019-02-23T16:53:08.401Z,18.92
2019-02-23T16:55:37.769Z,22.40
2019-02-23T16:58:07.103Z,23.00
2019-02-23T17:00:36.527Z,24.12
2019-02-23T17:03:05.978Z,21.57
2019-02-23T17:05:35.683Z,19.30
2019-02-23T17:08:05.203Z,23.62
2019-02-23T17:10:34.476Z,19.67
2019-02-23T17:13:03.862Z,20.02
2019-02-23T17:15:33.188Z,23.75
2019-02-23T17:18:02.502Z,27.02
2019-02-23T17:20:31.810Z,19.32
2019-02-23T17:23:02.183Z,24.20
2019-02-23T17:25:32.407Z,23.98
2019-02-23T17:28:07.039Z,23.90
2019-02-23T17:30:35.191Z,25.90
2019-02-23T17:33:04.565Z,30.48
2019-02-23T17:35:33.874Z,26.00
2019-02-23T17:38:15.710Z,26.27
2019-02-23T17:40:38.155Z,26.33
2019-02-23T17:43:07.425Z,26.07
2019-02-23T17:45:36.850Z,20.57
2019-02-23T17:48:06.255Z,29.82
2019-02-23T17:50:36.014Z,26.95
2019-02-23T17:53:05.598Z,21.75
2019-02-23T17:55:35.032Z,22.85
2019-02-23T17:58:04.453Z,26.27
2019-02-23T18:00:34.449Z,21.25
2019-02-23T18:03:05.441Z,26.60
2019-02-23T18:05:34.844Z,22.48
2019-02-23T18:08:04.257Z,27.90
2019-02-23T18:10:33.653Z,19.82
2019-02-23T18:13:02.987Z,24.50
2019-02-23T18:15:32.267Z,21.62
2019-02-23T18:18:01.662Z,19.10
2019-02-23T18:20:33.576Z,24.47
2019-02-23T18:23:02.992Z,22.98
2019-02-23T18:25:32.388Z,22.35
2019-02-23T18:28:01.774Z,23.05
2019-02-23T18:30:31.078Z,22.82
2019-02-23T18:33:00.510Z,24.50
2019-02-23T18:35:29.894Z,21.15
2019-02-23T18:37:59.198Z,22.00
2019-02-23T18:40:28.871Z,21.07
2019-02-23T18:42:58.169Z,26.70
2019-02-23T18:45:27.728Z,24.95
2019-02-23T18:47:57.145Z,26.35
2019-02-23T18:50:28.785Z,23.12
2019-02-23T18:52:58.227Z,29.67
2019-02-23T18:55:27.542Z,26.20
2019-02-23T18:57:56.821Z,25.57
2019-02-23T19:00:26.433Z,27.48
2019-02-23T19:02:55.739Z,25.60
2019-02-23T19:05:25.167Z,26.93
2019-02-23T19:07:54.742Z,27.73
2019-02-23T19:10:24.070Z,25.95
2019-02-23T19:12:53.367Z,31.50
2019-02-23T19:15:22.765Z,30.90
2019-02-23T19:17:58.367Z,29.37
2019-02-23T19:20:27.727Z,32.13
2019-02-23T19:22:57.138Z,31.48
2019-02-23T19:25:26.454Z,29.20
2019-02-23T19:27:56.024Z,34.65
2019-02-23T19:30:25.332Z,29.15
2019-02-23T19:32:54.633Z,30.55
2019-02-23T19:35:24.128Z,33.23
2019-02-23T19:37:53.569Z,29.30
2019-02-23T19:40:22.946Z,26.50
2019-02-23T19:42:52.617Z,26.07
2019-02-23T19:45:21.938Z,23.73
2019-02-23T19:47:51.650Z,26.23
2019-02-23T19:50:24.501Z,26.05
2019-02-23T19:52:53.877Z,28.57
2019-02-23T19:55:23.325Z,28.75
2019-02-23T19:57:52.654Z,30.27
2019-02-23T20:00:22.065Z,29.30
2019-02-23T20:02:51.584Z,30.75
2019-02-23T20:05:20.925Z,29.67
2019-02-23T20:07:50.292Z,28.80
2019-02-23T20:10:19.663Z,29.82
2019-02-23T20:12:49.112Z,28.30
2019-02-23T20:15:18.498Z,28.35
2019-02-23T20:17:47.849Z,32.63
2019-02-23T20:20:17.229Z,30.02
2019-02-23T20:22:46.552Z,29.12
2019-02-23T20:25:15.957Z,34.67
2019-02-23T20:27:46.025Z,37.75
2019-02-23T20:30:15.370Z,36.88
2019-02-23T20:32:44.678Z,35.55
2019-02-23T20:35:14.089Z,32.35
2019-02-23T20:37:43.480Z,37.05
2019-02-23T20:40:12.787Z,32.13
2019-02-23T20:42:42.192Z,34.10
2019-02-23T20:45:11.584Z,37.48
2019-02-23T20:47:40.932Z,32.38
2019-02-23T20:50:11.557Z,38.17
2019-02-23T20:52:40.907Z,34.85
2019-02-23T20:55:10.477Z,32.42
2019-02-23T20:57:39.894Z,32.80
2019-02-23T21:00:09.283Z,35.78
2019-02-23T21:02:38.666Z,31.42
2019-02-23T21:05:08.798Z,37.42
2019-02-23T21:07:38.814Z,36.48
2019-02-23T21:10:08.494Z,36.03
2019-02-23T21:12:37.915Z,36.58
2019-02-23T21:15:07.431Z,31.60
2019-02-23T21:17:36.797Z,33.92
2019-02-23T21:20:06.530Z,37.17
2019-02-23T21:22:35.897Z,36.45
2019-02-23T21:25:05.290Z,39.67
2019-02-23T21:27:34.714Z,34.33
2019-02-23T21:30:04.349Z,39.10
2019-02-23T21:32:33.743Z,36.05
2019-02-23T21:35:03.161Z,37.38
2019-02-23T21:37:32.598Z,38.08
2019-02-23T21:40:02.020Z,39.85
2019-02-23T21:42:31.460Z,40.43
2019-02-23T21:45:00.778Z,41.63
2019-02-23T21:47:30.813Z,39.35
2019-02-23T21:50:00.240Z,38.45
2019-02-23T21:52:29.859Z,36.88
2019-02-23T21:54:59.261Z,33.53
2019-02-23T21:57:28.688Z,34.95
2019-02-23T21:59:57.984Z,35.38
2019-02-23T22:02:27.281Z,42.78
2019-02-23T22:04:56.697Z,41.95
2019-02-23T22:07:26.065Z,42.53
2019-02-23T22:09:55.403Z,40.05
2019-02-23T22:12:24.737Z,39.60
2019-02-23T22:14:54.125Z,41.23
2019-02-23T22:17:23.482Z,37.58
2019-02-23T22:19:52.830Z,42.80
2019-02-23T22:22:22.116Z,38.28
2019-02-23T22:24:51.481Z,41.98
2019-02-23T22:27:21.497Z,38.70
2019-02-23T22:29:50.868Z,40.28
2019-02-23T22:32:20.189Z,40.20
2019-02-23T22:34:49.589Z,38.85
2019-02-23T22:37:19.006Z,38.42
2019-02-23T22:39:48.443Z,40.17
2019-02-23T22:42:17.895Z,42.58
2019-02-23T22:44:47.173Z,40.08
2019-02-23T22:47:16.553Z,41.83
2019-02-23T22:49:46.079Z,42.50
2019-02-23T22:52:15.461Z,40.48
2019-02-23T22:54:44.775Z,39.08
2019-02-23T22:57:14.233Z,44.55
2019-02-23T22:59:43.609Z,38.80
2019-02-23T23:02:12.976Z,43.55
2019-02-23T23:04:42.360Z,43.45
2019-02-23T23:07:12.292Z,39.50
2019-02-23T23:09:41.661Z,40.43
2019-02-23T23:12:11.169Z,40.55
2019-02-23T23:14:40.501Z,41.92
2019-02-23T23:17:09.794Z,43.55
2019-02-23T23:19:39.113Z,38.10
2019-02-23T23:22:08.413Z,43.52
2019-02-23T23:24:37.697Z,39.80
2019-02-23T23:27:07.134Z,39.55
2019-02-23T23:29:36.515Z,43.45
2019-02-23T23:32:05.811Z,39.83
2019-02-23T23:34:35.121Z,41.37
2019-02-23T23:37:04.434Z,41.08
2019-02-23T23:39:33.716Z,39.20
2019-02-23T23:42:03.177Z,39.33
2019-02-23T23:44:32.626Z,47.70
2019-02-23T23:47:02.091Z,38.17
2019-02-23T23:49:31.630Z,40.92
2019-02-23T23:52:00.919Z,45.43
2019-02-23T23:54:30.362Z,43.05
2019-02-23T23:56:59.842Z,37.98
2019-02-23T23:59:29.129Z,41.45
